Time;durP1;ratioP1;P1;durP2;ratioP2;P2;SDS_P1;SDS_P2;PMS_P1;PMS_P2;Temp;Humidity;BMP_temperature;BMP_pressure;BME280_temperature;BME280_humidity;BME280_pressure;Samples;Min_cycle;Max_cycle;Signal;HPM_P1;HPM_P2
2022/05/24 00:09:39;;;;;;;7.17;3.23;;;;;;;12.10;64.53;99684.63;31341961;28;20045;-73
2022/05/24 00:24:41;;;;;;;5.17;3.10;;;;;;;11.87;64.58;99683.78;31324907;28;20045;-73
2022/05/24 00:39:43;;;;;;;6.30;3.00;;;;;;;11.65;65.23;99688.34;31327788;28;20553;-73
2022/05/24 00:54:45;;;;;;;6.37;3.10;;;;;;;11.51;66.60;99678.69;31335127;28;20047;-73
2022/05/24 01:09:58;;;;;;;4.57;3.07;;;;;;;11.26;66.89;99679.41;31353108;28;20152;-73
2022/05/24 01:25:25;;;;;;;5.30;2.90;;;;;;;10.94;68.92;99688.47;31361654;28;20079;-73
2022/05/24 01:40:28;;;;;;;5.10;3.33;;;;;;;10.80;68.94;99686.16;31351190;28;20049;-72
2022/05/24 01:55:39;;;;;;;5.47;3.13;;;;;;;10.78;68.09;99690.47;31344668;28;20065;-73
2022/05/24 02:10:49;;;;;;;6.27;3.20;;;;;;;10.82;67.80;99704.72;31361319;28;20050;-72
2022/05/24 02:25:56;;;;;;;6.57;2.90;;;;;;;10.97;67.38;99716.72;31343798;28;20087;-72
2022/05/24 02:56:20;;;;;;;4.73;2.63;;;;;;;11.37;65.23;99733.44;31370672;28;20079;-73
2022/05/24 03:11:22;;;;;;;6.90;3.30;;;;;;;11.67;64.83;99753.94;31353825;28;20045;-72
2022/05/24 03:26:24;;;;;;;5.00;2.57;;;;;;;12.08;63.41;99746.88;31342998;28;20383;-72
2022/05/24 03:41:26;;;;;;;10.13;2.77;;;;;;;12.63;62.01;99756.38;31359343;28;20513;-72
2022/05/24 03:56:29;;;;;;;16.67;3.37;;;;;;;13.23;60.65;99762.47;31364535;28;20061;-73
2022/05/24 04:11:31;;;;;;;4.77;2.63;;;;;;;13.76;58.82;99754.28;31362152;28;20045;-72
2022/05/24 04:26:33;;;;;;;6.03;2.40;;;;;;;14.51;57.98;99773.97;31368406;28;20056;-72
2022/05/24 04:56:55;;;;;;;4.30;2.03;;;;;;;15.81;51.35;99787.88;31380607;28;20092;-73
2022/05/24 05:11:57;;;;;;;7.80;1.90;;;;;;;16.56;48.93;99801.50;31355341;28;20045;-73
2022/05/24 05:26:59;;;;;;;4.60;1.88;;;;;;;17.22;47.16;99806.84;31394262;28;20053;-72
2022/05/24 05:42:01;;;;;;;2.67;2.00;;;;;;;17.72;43.62;99809.72;31350163;28;20037;-72
2022/05/24 05:57:06;;;;;;;5.57;2.00;;;;;;;17.80;41.49;99826.56;31367808;28;20049;-73
2022/05/24 06:12:08;;;;;;;6.80;2.55;;;;;;;18.70;39.59;99824.69;31349210;28;20044;-72
2022/05/24 06:27:10;;;;;;;4.93;1.98;;;;;;;19.84;33.05;99826.16;31347119;28;20052;-72
2022/05/24 06:42:12;;;;;;;6.38;1.48;;;;;;;20.32;29.97;99829.00;31348732;28;20056;-72
2022/05/24 06:57:14;;;;;;;2.13;1.73;;;;;;;21.10;28.60;99823.13;31310819;28;20072;-73
2022/05/24 07:12:18;;;;;;;2.53;1.50;;;;;;;21.60;29.50;99808.72;31289995;28;20041;-74
2022/05/24 07:27:21;;;;;;;;;;;;;;;21.94;27.54;99815.75;31328160;28;20495;-75
2022/05/24 07:57:43;;;;;;;3.50;1.48;;;;;;;22.73;25.64;99817.09;31332000;28;20057;-77
2022/05/24 08:12:45;;;;;;;4.18;2.10;;;;;;;21.96;26.92;99812.50;31338083;28;20059;-76
2022/05/24 08:27:48;;;;;;;2.50;1.60;;;;;;;21.59;26.81;99818.25;31320721;28;20056;-76
2022/05/24 08:43:11;;;;;;;5.78;3.40;;;;;;;20.63;28.41;99827.47;31318382;28;20045;-75
2022/05/24 08:58:30;;;;;;;3.03;1.93;;;;;;;20.17;29.96;99833.16;31293643;28;20060;-77
2022/05/24 09:13:50;;;;;;;6.55;2.00;;;;;;;19.97;31.17;99842.28;31339450;28;20205;-76
2022/05/24 09:29:08;;;;;;;4.35;1.70;;;;;;;21.06;31.54;99839.16;31350129;28;20053;-77
2022/05/24 09:44:19;;;;;;;3.65;1.73;;;;;;;22.93;28.21;99834.66;31338870;28;20395;-76
2022/05/24 09:59:26;;;;;;;3.75;1.98;;;;;;;23.67;27.47;99817.88;31353466;28;20067;-77
2022/05/24 10:14:47;;;;;;;3.35;1.70;;;;;;;22.53;28.48;99820.19;31327013;28;20041;-77
2022/05/24 10:46:20;;;;;;;3.53;1.90;;;;;;;23.67;25.21;99817.13;31306986;28;20057;-77
2022/05/24 11:01:32;;;;;;;3.72;1.80;;;;;;;22.09;27.79;99810.72;31389117;28;20045;-77
2022/05/24 11:16:39;;;;;;;2.95;1.73;;;;;;;21.12;29.76;99809.59;31346525;28;20057;-76
2022/05/24 11:31:47;;;;;;;6.25;1.95;;;;;;;20.73;30.59;99815.75;31350440;28;20136;-75
2022/05/24 11:46:49;;;;;;;5.20;1.60;;;;;;;20.74;30.90;99808.22;31334949;28;20398;-75
2022/05/24 12:01:52;;;;;;;3.30;1.50;;;;;;;20.34;31.99;99828.50;31314268;28;20084;-77
2022/05/24 12:16:54;;;;;;;2.50;1.63;;;;;;;20.84;31.54;99823.28;31345780;28;20056;-76
2022/05/24 12:32:03;;;;;;;6.93;2.25;;;;;;;20.22;33.03;99824.94;31323250;28;20079;-75
2022/05/24 12:47:05;;;;;;;5.13;2.38;;;;;;;20.14;33.62;99828.63;31344823;28;20051;-76
2022/05/24 13:02:16;;;;;;;3.05;1.90;;;;;;;20.59;33.79;99824.94;31367230;28;20075;-74
2022/05/24 13:17:21;;;;;;;3.38;1.55;;;;;;;21.07;32.84;99818.59;31334097;28;20049;-73
2022/05/24 13:48:02;;;;;;;6.13;2.53;;;;;;;20.39;33.77;99828.59;31328779;28;20057;-74
2022/05/24 14:03:16;;;;;;;3.47;2.10;;;;;;;20.62;33.39;99821.19;31340040;28;20478;-76
2022/05/24 14:18:19;;;;;;;5.93;2.00;;;;;;;20.14;34.16;99834.16;31336321;28;20049;-74
2022/05/24 14:33:22;;;;;;;4.47;1.85;;;;;;;19.82;33.82;99842.44;31355492;28;20438;-74
2022/05/24 14:48:24;;;;;;;2.90;2.00;;;;;;;19.93;34.35;99842.50;31317229;28;20142;-75
2022/05/24 15:03:26;;;;;;;2.47;1.83;;;;;;;19.91;34.61;99841.50;31306408;28;20056;-71
2022/05/24 15:18:29;;;;;;;4.17;1.90;;;;;;;20.04;33.99;99837.09;31314740;28;20088;-77
2022/05/24 15:33:31;;;;;;;5.00;2.67;;;;;;;19.94;35.90;99846.78;31333319;28;20049;-74
2022/05/24 15:48:34;;;;;;;5.80;1.90;;;;;;;19.57;36.65;99856.97;31308528;28;20060;-71
2022/05/24 16:03:37;;;;;;;3.63;2.47;;;;;;;19.25;36.65;99862.34;31315469;28;20045;-73
2022/05/24 16:18:41;;;;;;;6.60;1.83;;;;;;;19.03;36.77;99873.09;31296312;28;20148;-70
2022/05/24 16:33:47;;;;;;;12.13;5.72;;;;;;;18.96;36.77;99885.25;31363728;28;20132;-70
2022/05/24 16:48:58;;;;;;;4.20;2.42;;;;;;;18.83;37.68;99892.34;31380079;28;20044;-71
2022/05/24 17:04:00;;;;;;;10.52;2.38;;;;;;;18.39;39.67;99915.19;31356660;28;20045;-72
2022/05/24 17:19:02;;;;;;;6.70;2.80;;;;;;;17.95;40.88;99929.66;31348122;28;20049;-72
2022/05/24 17:34:07;;;;;;;3.77;2.60;;;;;;;17.61;40.84;99946.75;31326909;28;20049;-73
2022/05/24 17:49:09;;;;;;;4.90;2.90;;;;;;;17.38;39.95;99954.53;31342925;28;20057;-72
2022/05/24 18:04:11;;;;;;;2.30;1.70;;;;;;;17.11;38.19;99965.69;31341575;28;20052;-74
2022/05/24 18:19:13;;;;;;;5.57;2.42;;;;;;;16.81;36.24;99985.94;31328328;28;20491;-74
2022/05/24 18:34:27;;;;;;;3.30;1.45;;;;;;;16.66;34.20;100002.28;31344302;28;20091;-73
2022/05/24 18:49:29;;;;;;;2.83;1.95;;;;;;;16.53;34.92;100005.22;31339470;28;20057;-73
2022/05/24 19:04:32;;;;;;;3.78;2.15;;;;;;;16.36;34.65;100023.94;31319659;28;20422;-74
2022/05/24 19:19:34;;;;;;;3.10;1.73;;;;;;;15.98;34.92;100032.69;31334293;28;20425;-74
2022/05/24 19:34:37;;;;;;;2.80;1.60;;;;;;;15.74;34.57;100037.22;31349356;28;20044;-73
2022/05/24 19:49:39;;;;;;;3.57;1.70;;;;;;;15.69;34.51;100043.28;31313049;28;20136;-73
2022/05/24 20:04:42;;;;;;;13.10;7.43;;;;;;;15.56;34.59;100065.34;31188634;28;20045;-74
2022/05/24 20:19:45;;;;;;;11.15;4.70;;;;;;;15.38;34.92;100078.16;31169351;28;20141;-72
2022/05/24 20:34:47;;;;;;;17.07;5.07;;;;;;;15.24;35.29;100085.72;31186418;28;20046;-73
2022/05/24 20:49:49;;;;;;;13.40;3.57;;;;;;;15.11;35.19;100087.03;31232444;28;20053;-72
2022/05/24 21:04:53;;;;;;;3.73;2.40;;;;;;;14.65;36.12;100101.19;31344904;28;20060;-75
2022/05/24 21:19:55;;;;;;;6.77;2.73;;;;;;;14.49;36.56;100109.59;31343760;28;20049;-74
2022/05/24 21:34:57;;;;;;;4.10;2.10;;;;;;;14.12;37.43;100124.16;31312705;28;20045;-74
2022/05/24 21:50:20;;;;;;;2.50;1.50;;;;;;;13.99;37.82;100122.19;31342898;28;20462;-75
2022/05/24 22:05:22;;;;;;;4.80;1.87;;;;;;;14.05;37.97;100135.28;31350594;28;20457;-74
2022/05/24 22:20:26;;;;;;;4.73;1.80;;;;;;;14.06;38.25;100123.94;31327553;28;20052;-74
2022/05/24 22:35:29;;;;;;;2.90;1.57;;;;;;;14.03;38.08;100127.53;31333845;28;20127;-75
2022/05/24 22:50:30;;;;;;;2.97;2.00;;;;;;;14.03;38.20;100126.78;31347023;28;20059;-74
2022/05/24 23:05:33;;;;;;;2.83;1.53;;;;;;;14.06;38.24;100128.63;31364139;28;20042;-74
2022/05/24 23:20:35;;;;;;;3.60;2.20;;;;;;;13.74;38.42;100133.16;31325761;28;20060;-74
2022/05/24 23:35:37;;;;;;;5.53;2.23;;;;;;;13.23;38.99;100149.53;31356699;28;20045;-73
2022/05/24 23:50:39;;;;;;;3.53;1.60;;;;;;;12.78;40.28;100159.78;31337366;28;20122;-74
